Time;durP1;ratioP1;P1;durP2;ratioP2;P2;SDS_P1;SDS_P2;PMS_P1;PMS_P2;Temp;Humidity;BMP_temperature;BMP_pressure;BME280_temperature;BME280_humidity;BME280_pressure;Samples;Min_cycle;Max_cycle;Signal;HPM_P1;HPM_P2
2021/06/03 00:00:38;;;;;;;1.40;1.10;;;;;;;11.61;55.05;100445.47;4765013;30;20047;-76
2021/06/03 00:03:06;;;;;;;2.55;1.20;;;;;;;11.52;55.33;100447.16;4766662;30;20162;-77
2021/06/03 00:05:41;;;;;;;1.17;1.08;;;;;;;11.44;55.11;100443.41;4768421;30;20541;-74
2021/06/03 00:08:07;;;;;;;2.28;1.17;;;;;;;11.43;55.41;100447.13;4773662;29;20043;-76
2021/06/03 00:10:36;;;;;;;2.38;1.20;;;;;;;11.39;55.36;100445.69;4779723;29;20054;-75
2021/06/03 00:13:04;;;;;;;2.42;1.50;;;;;;;11.37;55.46;100442.25;4766187;30;20154;-76
2021/06/03 00:15:30;;;;;;;1.20;1.10;;;;;;;11.34;55.83;100444.25;4764701;30;20047;-76
2021/06/03 00:17:56;;;;;;;1.25;1.10;;;;;;;11.29;55.94;100432.97;4767567;30;20133;-76
2021/06/03 00:20:26;;;;;;;2.33;1.17;;;;;;;11.22;56.49;100445.31;4763069;30;20514;-79
2021/06/03 00:22:52;;;;;;;2.13;1.30;;;;;;;11.11;56.70;100445.41;4765278;30;20051;-77
2021/06/03 00:25:18;;;;;;;1.88;1.33;;;;;;;11.06;56.51;100442.28;4766097;30;20127;-74
2021/06/03 00:27:44;;;;;;;1.77;1.25;;;;;;;11.06;56.23;100450.38;4765173;29;20062;-76
2021/06/03 00:30:10;;;;;;;1.50;1.23;;;;;;;11.01;56.46;100458.91;4766284;30;20039;-77
2021/06/03 00:32:36;;;;;;;3.28;1.30;;;;;;;10.93;56.73;100452.44;4766392;30;20083;-77
2021/06/03 00:35:03;;;;;;;2.65;1.20;;;;;;;11.00;56.22;100451.75;4774081;30;20075;-76
2021/06/03 00:37:29;;;;;;;2.55;1.13;;;;;;;10.98;56.01;100451.06;4771697;29;20077;-76
2021/06/03 00:40:03;;;;;;;4.88;1.15;;;;;;;11.01;56.08;100442.69;4771516;30;20130;-75
2021/06/03 00:42:29;;;;;;;1.45;1.10;;;;;;;10.97;56.68;100437.66;4765865;29;20055;-76
2021/06/03 00:44:55;;;;;;;2.97;1.13;;;;;;;10.93;56.36;100447.03;4749938;30;20075;-77
2021/06/03 00:47:21;;;;;;;1.58;1.13;;;;;;;10.92;56.31;100442.63;4771322;30;20142;-77
2021/06/03 00:49:47;;;;;;;2.40;1.30;;;;;;;10.95;56.42;100440.50;4765177;30;20039;-76
2021/06/03 00:52:15;;;;;;;1.92;1.10;;;;;;;10.99;56.23;100441.94;4764412;30;20062;-77
2021/06/03 00:54:41;;;;;;;1.20;1.10;;;;;;;11.02;55.87;100444.38;4773065;30;20047;-75
2021/06/03 00:57:07;;;;;;;2.15;1.10;;;;;;;11.07;55.73;100435.84;4780733;29;20442;-75
2021/06/03 00:59:33;;;;;;;2.88;1.30;;;;;;;11.06;55.74;100443.13;4757277;30;20047;-75
2021/06/03 01:02:00;;;;;;;2.92;1.80;;;;;;;11.05;55.71;100444.13;4780703;29;20074;-75
2021/06/03 01:04:30;;;;;;;1.17;1.08;;;;;;;11.14;55.59;100437.03;4757782;30;20051;-75
2021/06/03 01:06:58;;;;;;;1.73;1.00;;;;;;;11.22;55.11;100439.91;4772403;29;20259;-77
2021/06/03 01:09:35;;;;;;;1.95;1.00;;;;;;;11.24;54.86;100437.94;4778170;29;20121;-77
2021/06/03 01:12:08;;;;;;;1.30;1.20;;;;;;;11.26;54.84;100438.66;4790310;29;20075;-77
2021/06/03 01:14:38;;;;;;;1.17;0.98;;;;;;;11.18;54.80;100433.06;4767462;30;20059;-78
2021/06/03 01:17:05;;;;;;;1.73;0.95;;;;;;;11.15;55.19;100437.88;4770594;30;20083;-78
2021/06/03 01:19:37;;;;;;;1.80;0.88;;;;;;;11.21;54.43;100446.31;4780763;29;20700;-75
2021/06/03 01:22:14;;;;;;;3.27;1.20;;;;;;;11.26;54.45;100446.78;4766274;30;20074;-74
2021/06/03 01:24:47;;;;;;;1.50;1.00;;;;;;;11.29;54.60;100441.06;4771874;30;20047;-76
2021/06/03 01:27:16;;;;;;;3.75;1.27;;;;;;;11.33;54.51;100442.53;4767281;30;20052;-76
2021/06/03 01:29:51;;;;;;;1.60;1.20;;;;;;;11.32;54.34;100440.81;4767794;30;20050;-75
2021/06/03 01:32:17;;;;;;;2.38;1.10;;;;;;;11.35;54.74;100445.97;4792019;29;20070;-76
2021/06/03 01:34:45;;;;;;;1.20;1.10;;;;;;;11.29;55.04;100445.63;4761357;30;20428;-76
2021/06/03 01:37:11;;;;;;;1.77;1.13;;;;;;;11.24;54.92;100448.75;4748528;30;20064;-74
2021/06/03 01:39:38;;;;;;;1.63;1.15;;;;;;;11.26;54.91;100451.31;4763497;30;20054;-76
2021/06/03 01:42:05;;;;;;;4.05;1.27;;;;;;;11.27;54.91;100459.31;4771065;30;20083;-75
2021/06/03 01:44:32;;;;;;;1.67;1.25;;;;;;;11.24;55.03;100454.19;4757199;30;20044;-76
2021/06/03 01:46:58;;;;;;;0.85;0.85;;;;;;;11.18;55.23;100460.13;4736566;30;20630;-76
2021/06/03 01:49:25;;;;;;;1.90;1.05;;;;;;;11.22;55.27;100471.53;4781277;29;20498;-77
2021/06/03 01:51:52;;;;;;;1.50;1.13;;;;;;;11.15;55.49;100471.22;4765574;30;20416;-74
2021/06/03 01:54:20;;;;;;;4.00;1.50;;;;;;;11.15;55.92;100468.50;4763929;30;20211;-77
2021/06/03 01:56:46;;;;;;;1.35;1.00;;;;;;;11.12;56.02;100468.81;4763774;30;20082;-75
2021/06/03 01:59:15;;;;;;;2.78;1.08;;;;;;;11.12;55.87;100470.66;4775443;29;20044;-75
2021/06/03 02:01:41;;;;;;;2.95;1.40;;;;;;;11.10;56.21;100468.06;4783208;29;20134;-75
2021/06/03 02:04:07;;;;;;;1.55;1.05;;;;;;;11.09;56.12;100466.34;4774192;30;20047;-76
2021/06/03 02:06:33;;;;;;;1.60;1.30;;;;;;;11.06;56.35;100467.47;4737122;30;20044;-75
2021/06/03 02:09:05;;;;;;;2.13;1.13;;;;;;;11.07;56.21;100460.22;4749266;30;20484;-78
2021/06/03 02:11:32;;;;;;;2.13;1.30;;;;;;;11.06;56.56;100466.63;4778186;29;20537;-75
2021/06/03 02:13:59;;;;;;;2.40;1.00;;;;;;;11.10;56.49;100457.25;4776562;30;20197;-76
2021/06/03 02:16:48;;;;;;;2.88;1.40;;;;;;;11.13;55.86;100451.56;4758876;30;20100;-76
2021/06/03 02:19:18;;;;;;;4.35;1.40;;;;;;;11.17;55.85;100455.72;4756225;30;20425;-76
2021/06/03 02:21:53;;;;;;;2.67;1.20;;;;;;;11.16;55.68;100455.84;4771190;29;20546;-76
2021/06/03 02:24:21;;;;;;;1.45;1.15;;;;;;;11.23;56.02;100462.44;4780176;29;20052;-76
2021/06/03 02:26:49;;;;;;;2.25;1.10;;;;;;;11.23;56.05;100455.19;4789917;29;20048;-76
2021/06/03 02:29:17;;;;;;;2.13;1.20;;;;;;;11.27;55.84;100470.16;4774678;30;20043;-77
2021/06/03 02:31:57;;;;;;;2.78;1.20;;;;;;;11.27;55.88;100464.72;4768138;30;20136;-76
2021/06/03 02:34:27;;;;;;;3.40;1.30;;;;;;;11.37;55.39;100464.75;4755192;30;20051;-75
2021/06/03 02:36:53;;;;;;;2.47;0.93;;;;;;;11.41;55.85;100460.81;4767371;30;20527;-75
2021/06/03 02:39:19;;;;;;;1.52;0.98;;;;;;;11.45;55.40;100456.84;4755888;30;20081;-77
2021/06/03 02:41:46;;;;;;;2.33;1.05;;;;;;;11.54;55.33;100461.41;4778896;29;20075;-76
2021/06/03 02:44:12;;;;;;;2.53;1.30;;;;;;;11.69;54.62;100458.31;4772152;30;20133;-76
2021/06/03 02:46:38;;;;;;;1.90;1.15;;;;;;;11.77;54.54;100467.47;4767682;30;20082;-75
2021/06/03 02:49:06;;;;;;;1.60;0.93;;;;;;;11.86;54.46;100460.41;4764338;30;20040;-77
2021/06/03 02:51:33;;;;;;;6.05;1.30;;;;;;;11.99;54.04;100460.13;4764729;30;20052;-75
2021/06/03 02:54:00;;;;;;;3.58;1.10;;;;;;;12.16;54.37;100455.88;4757936;30;20043;-76
2021/06/03 02:56:33;;;;;;;2.58;1.20;;;;;;;12.33;53.05;100457.03;4752585;30;20040;-75
2021/06/03 02:59:00;;;;;;;3.13;1.23;;;;;;;12.48;53.04;100455.59;4791680;29;20087;-75
2021/06/03 03:01:27;;;;;;;2.92;1.40;;;;;;;12.66;52.40;100459.28;4769096;30;20167;-80
2021/06/03 03:03:53;;;;;;;2.28;1.20;;;;;;;12.74;51.62;100456.69;4768368;30;20446;-76
2021/06/03 03:06:20;;;;;;;2.40;1.40;;;;;;;12.94;52.60;100462.06;4767313;30;20095;-76
2021/06/03 03:08:46;;;;;;;2.22;1.50;;;;;;;13.05;52.00;100445.59;4781365;29;20044;-77
2021/06/03 03:11:13;;;;;;;3.28;1.15;;;;;;;13.18;51.40;100451.56;4767339;30;20139;-78
2021/06/03 03:13:44;;;;;;;3.65;1.40;;;;;;;13.34;51.61;100452.84;4780838;29;20050;-78
2021/06/03 03:16:10;;;;;;;1.40;1.15;;;;;;;13.42;51.34;100452.94;4780913;29;20056;-77
2021/06/03 03:18:36;;;;;;;3.47;1.58;;;;;;;13.41;50.70;100445.78;4766823;30;20439;-78
2021/06/03 03:21:06;;;;;;;2.85;1.33;;;;;;;13.56;50.35;100446.16;4762352;30;20055;-76
2021/06/03 03:23:33;;;;;;;2.35;1.67;;;;;;;13.80;50.14;100442.88;4768452;30;20052;-77
2021/06/03 03:26:00;;;;;;;4.10;2.30;;;;;;;13.82;49.53;100444.44;4766629;30;20081;-76
2021/06/03 03:28:26;;;;;;;2.20;1.35;;;;;;;13.94;49.24;100450.50;4768109;30;20044;-77
2021/06/03 03:30:54;;;;;;;1.48;1.15;;;;;;;14.28;48.20;100452.56;4766096;30;20180;-77
2021/06/03 03:33:23;;;;;;;2.78;1.30;;;;;;;14.46;48.04;100456.13;4787459;29;20047;-78
2021/06/03 03:35:49;;;;;;;2.08;1.27;;;;;;;14.63;48.08;100452.56;4769404;30;20056;-77
2021/06/03 03:38:20;;;;;;;2.45;1.20;;;;;;;14.86;47.63;100452.91;4752146;30;20446;-78
2021/06/03 03:40:50;;;;;;;3.95;1.40;;;;;;;14.97;47.02;100449.06;4766693;29;20054;-78
2021/06/03 03:43:17;;;;;;;2.47;1.40;;;;;;;15.08;46.68;100439.78;4781133;29;20067;-77
2021/06/03 03:45:43;;;;;;;3.13;1.40;;;;;;;15.24;46.68;100444.44;4787921;29;20063;-78
2021/06/03 03:48:09;;;;;;;3.63;1.27;;;;;;;15.52;46.00;100451.41;4774158;30;20043;-76
2021/06/03 03:50:37;;;;;;;2.45;1.35;;;;;;;15.71;45.47;100446.75;4772552;30;20057;-77
2021/06/03 03:53:07;;;;;;;4.20;1.40;;;;;;;15.88;45.47;100448.50;4774250;30;20055;-77
2021/06/03 03:55:34;;;;;;;3.50;1.60;;;;;;;16.06;44.77;100451.97;4768342;30;20239;-77
2021/06/03 03:58:02;;;;;;;2.85;1.45;;;;;;;16.18;44.60;100451.66;4764619;30;20048;-75
2021/06/03 04:00:32;;;;;;;4.72;1.58;;;;;;;16.32;44.51;100440.91;4769689;30;20039;-76
2021/06/03 04:03:06;;;;;;;3.10;1.60;;;;;;;16.45;43.79;100450.47;4785636;29;20498;-75
2021/06/03 04:05:34;;;;;;;6.25;2.58;;;;;;;16.69;43.26;100453.22;4780509;29;20404;-77
2021/06/03 04:08:08;;;;;;;4.63;1.48;;;;;;;16.67;43.45;100455.25;4776677;29;20067;-77
2021/06/03 04:10:35;;;;;;;2.33;1.27;;;;;;;17.03;43.05;100449.44;4747181;30;20523;-78
2021/06/03 04:13:02;;;;;;;6.78;2.00;;;;;;;17.22;43.74;100450.94;4770340;30;20055;-79
2021/06/03 04:15:29;;;;;;;1.40;1.27;;;;;;;17.56;42.10;100457.00;4772042;30;20059;-77
2021/06/03 04:17:57;;;;;;;2.45;1.30;;;;;;;17.60;42.27;100457.50;4766082;30;20514;-76
2021/06/03 04:20:24;;;;;;;1.60;1.20;;;;;;;17.86;41.19;100454.50;4748362;30;20146;-76
2021/06/03 04:22:52;;;;;;;1.70;1.50;;;;;;;17.90;41.19;100452.25;4771757;30;20506;-77
2021/06/03 04:25:22;;;;;;;1.98;1.77;;;;;;;18.10;41.17;100459.00;4766166;30;20040;-78
2021/06/03 04:27:48;;;;;;;4.57;1.70;;;;;;;18.24;41.18;100460.94;4775284;29;20130;-78
2021/06/03 04:30:18;;;;;;;1.98;1.65;;;;;;;18.51;41.20;100456.81;4767533;30;20043;-79
2021/06/03 04:32:45;;;;;;;2.47;1.60;;;;;;;18.82;40.91;100464.13;4768312;30;20043;-76
2021/06/03 04:35:13;;;;;;;2.13;1.50;;;;;;;18.81;40.64;100462.41;4780474;29;20062;-76
2021/06/03 04:37:40;;;;;;;3.60;1.58;;;;;;;18.74;39.98;100472.41;4777040;29;20052;-76
2021/06/03 04:40:06;;;;;;;1.52;1.30;;;;;;;19.01;39.57;100473.69;4791744;29;20161;-78
2021/06/03 04:42:32;;;;;;;2.03;1.42;;;;;;;19.32;38.96;100465.34;4773040;29;20123;-76
2021/06/03 04:44:58;;;;;;;1.75;1.50;;;;;;;19.37;38.94;100462.03;4774276;30;20101;-78
2021/06/03 04:47:24;;;;;;;2.97;1.50;;;;;;;19.66;39.19;100467.53;4793748;29;20497;-78
2021/06/03 04:49:50;;;;;;;3.47;1.60;;;;;;;19.95;38.57;100455.66;4774497;30;20070;-78
2021/06/03 04:52:25;;;;;;;3.25;2.10;;;;;;;20.05;38.16;100465.50;4766333;29;20048;-78
2021/06/03 04:54:56;;;;;;;4.60;2.20;;;;;;;20.34;37.01;100470.06;4777767;29;20130;-74
2021/06/03 04:57:24;;;;;;;2.58;1.98;;;;;;;20.54;36.71;100462.88;4764261;30;20310;-78
2021/06/03 04:59:50;;;;;;;8.85;2.65;;;;;;;20.77;36.57;100459.94;4766975;30;20185;-78
2021/06/03 05:02:17;;;;;;;3.45;1.60;;;;;;;20.97;36.14;100456.50;4750216;30;20047;-79
2021/06/03 05:04:44;;;;;;;5.55;2.00;;;;;;;21.09;36.11;100452.16;4761089;30;20147;-78
2021/06/03 05:07:10;;;;;;;2.35;1.98;;;;;;;21.29;36.00;100455.91;4770884;30;20406;-78
2021/06/03 05:09:38;;;;;;;4.05;1.80;;;;;;;21.74;35.59;100447.28;4778214;30;20724;-81
2021/06/03 05:12:06;;;;;;;2.10;1.67;;;;;;;21.63;35.46;100451.47;4768246;29;20043;-77
2021/06/03 05:14:32;;;;;;;2.55;1.92;;;;;;;22.07;35.33;100450.19;4772027;30;20451;-76
2021/06/03 05:16:58;;;;;;;2.17;1.52;;;;;;;22.32;34.23;100445.81;4767981;30;20204;-79
2021/06/03 05:19:25;;;;;;;1.63;1.52;;;;;;;22.24;34.51;100448.78;4770511;30;20052;-76
2021/06/03 05:21:51;;;;;;;1.50;1.40;;;;;;;22.39;33.58;100443.94;4787640;29;20126;-77
2021/06/03 05:24:17;;;;;;;3.33;1.70;;;;;;;22.18;34.48;100446.84;4768392;30;20471;-78
2021/06/03 05:26:44;;;;;;;3.40;1.73;;;;;;;22.55;33.92;100447.34;4766873;30;20411;-77
2021/06/03 05:29:14;;;;;;;4.57;2.40;;;;;;;22.35;33.88;100448.16;4778064;30;20048;-77
2021/06/03 05:31:44;;;;;;;3.55;1.73;;;;;;;22.61;33.54;100457.53;4777670;29;20071;-78
2021/06/03 05:34:11;;;;;;;5.82;2.13;;;;;;;23.31;32.93;100450.53;4765940;30;20064;-77
2021/06/03 05:36:36;;;;;;;3.15;1.80;;;;;;;23.69;32.62;100446.22;4781688;29;20178;-78
2021/06/03 05:39:04;;;;;;;3.10;1.70;;;;;;;23.91;31.92;100457.81;4785642;29;20178;-79
2021/06/03 05:41:31;;;;;;;2.03;1.30;;;;;;;23.56;31.21;100456.22;4759626;30;20154;-77
2021/06/03 05:43:57;;;;;;;2.45;1.80;;;;;;;23.87;32.11;100457.41;4758343;30;20059;-78
2021/06/03 05:46:23;;;;;;;3.65;2.08;;;;;;;24.15;31.71;100447.94;4777812;29;20032;-84
2021/06/03 05:48:51;;;;;;;5.85;2.17;;;;;;;23.99;31.99;100455.69;4757723;30;20054;-86
2021/06/03 05:51:19;;;;;;;4.28;1.80;;;;;;;24.13;30.98;100459.19;4802006;29;20107;-85
2021/06/03 05:53:45;;;;;;;4.75;1.77;;;;;;;24.29;30.28;100450.41;4788179;30;20088;-85
2021/06/03 05:56:12;;;;;;;3.75;1.83;;;;;;;24.30;29.86;100452.09;4809628;29;20056;-82
2021/06/03 05:58:39;;;;;;;1.60;1.50;;;;;;;24.67;30.36;100457.00;4789915;30;20055;-85
2021/06/03 06:01:05;;;;;;;4.38;2.03;;;;;;;24.76;29.08;100467.56;4772953;30;20439;-84
2021/06/03 06:03:48;;;;;;;4.22;2.00;;;;;;;24.73;28.69;100454.19;4757439;30;20075;-84
2021/06/03 06:08:48;;;;;;;6.25;2.40;;;;;;;24.78;28.29;100470.94;4855931;24;19936;-84
2021/06/03 06:11:14;;;;;;;6.70;1.90;;;;;;;24.78;28.17;100473.72;4803452;29;20066;-82
2021/06/03 06:13:44;;;;;;;4.20;1.83;;;;;;;25.45;27.63;100471.25;4775775;30;20657;-85
2021/06/03 06:16:11;;;;;;;3.70;1.70;;;;;;;25.90;27.92;100468.19;4790299;29;20082;-86
2021/06/03 06:18:42;;;;;;;8.80;2.10;;;;;;;25.81;26.54;100465.97;4797511;29;20054;-86
2021/06/03 06:21:29;;;;;;;5.90;2.30;;;;;;;25.48;27.06;100464.38;4796344;24;20101;31
2021/06/03 06:24:15;;;;;;;6.43;2.10;;;;;;;25.50;26.55;100467.78;4799234;29;20050;-87
2021/06/03 06:26:58;;;;;;;5.22;2.28;;;;;;;25.96;26.03;100455.31;4772443;30;20865;-85
2021/06/03 06:29:52;;;;;;;10.88;3.38;;;;;;;26.33;27.00;100463.59;4758730;30;20047;-88
2021/06/03 06:32:19;;;;;;;3.83;1.80;;;;;;;25.92;26.58;100454.09;4728550;30;20083;-86
2021/06/03 06:34:51;;;;;;;5.75;2.00;;;;;;;25.80;25.87;100461.50;4761192;30;20056;-84
2021/06/03 06:37:22;;;;;;;4.97;1.90;;;;;;;26.35;26.82;100458.66;4714770;30;20060;-83
2021/06/03 06:39:48;;;;;;;11.15;2.88;;;;;;;25.77;26.13;100456.41;4732860;30;20044;-83
2021/06/03 06:42:26;;;;;;;8.15;3.05;;;;;;;26.30;25.83;100461.28;4748434;30;20060;-87
2021/06/03 06:45:28;;;;;;;2.65;1.90;;;;;;;26.97;24.43;100475.84;4757519;29;20067;-84
2021/06/03 06:47:56;;;;;;;6.95;1.85;;;;;;;26.94;24.47;100473.56;4759986;30;20043;-83
2021/06/03 06:50:23;;;;;;;2.38;1.80;;;;;;;26.41;24.59;100460.50;4735053;30;20191;-85
2021/06/03 06:52:52;;;;;;;4.55;2.05;;;;;;;27.24;23.96;100484.63;4762845;30;20184;-85
2021/06/03 06:58:20;;;;;;;5.07;2.38;;;;;;;27.39;23.41;100484.97;4738443;30;20072;-85
2021/06/03 07:00:52;;;;;;;11.20;3.13;;;;;;;27.47;23.83;100469.03;4728209;30;20077;-85
2021/06/03 07:03:20;;;;;;;4.53;2.17;;;;;;;27.69;23.70;100474.81;4721016;30;20092;-87
2021/06/03 07:05:50;;;;;;;4.80;2.20;;;;;;;28.03;23.37;100468.34;4739907;30;20116;-86
2021/06/03 07:08:17;;;;;;;7.03;2.25;;;;;;;28.02;22.51;100468.59;4744006;30;20056;-87
2021/06/03 07:10:43;;;;;;;6.97;2.45;;;;;;;28.40;23.36;100476.34;4719425;30;20044;-82
2021/06/03 07:13:10;;;;;;;7.03;2.15;;;;;;;28.15;22.49;100473.03;4739668;30;20527;-82
2021/06/03 07:15:37;;;;;;;5.60;2.35;;;;;;;27.94;22.32;100488.47;4726596;30;20041;-82
2021/06/03 07:18:03;;;;;;;5.88;2.60;;;;;;;28.29;21.95;100475.25;4715221;30;20102;-84
2021/06/03 07:20:30;;;;;;;2.40;1.90;;;;;;;28.09;22.32;100475.72;4756850;30;20045;-83
2021/06/03 07:23:03;;;;;;;8.52;2.75;;;;;;;27.65;22.25;100480.84;4752480;30;20089;-84
2021/06/03 07:25:32;;;;;;;4.43;2.60;;;;;;;28.01;22.28;100481.66;4750047;30;20515;-82
2021/06/03 07:27:58;;;;;;;7.10;2.40;;;;;;;28.20;21.98;100482.31;4750006;30;20042;-83
2021/06/03 07:30:26;;;;;;;2.83;2.00;;;;;;;28.58;21.58;100473.34;4763968;30;20063;-84
2021/06/03 07:32:54;;;;;;;5.80;2.70;;;;;;;28.44;22.00;100483.09;4760399;30;20052;-86
2021/06/03 07:35:23;;;;;;;2.80;2.10;;;;;;;28.89;21.57;100478.59;4767009;29;20120;-84
2021/06/03 07:37:52;;;;;;;3.70;2.15;;;;;;;29.74;21.28;100471.94;4742129;30;20039;-84
2021/06/03 07:40:22;;;;;;;4.72;2.40;;;;;;;30.10;20.81;100477.97;4730408;30;20048;-81
2021/06/03 07:42:50;;;;;;;2.55;2.05;;;;;;;29.90;20.71;100475.75;4730705;30;20058;-82
2021/06/03 07:45:20;;;;;;;3.60;2.10;;;;;;;30.72;20.74;100485.94;4774601;30;20052;-84
2021/06/03 07:47:46;;;;;;;6.95;2.40;;;;;;;30.27;20.19;100484.31;4761165;30;20066;-84
2021/06/03 07:50:14;;;;;;;11.38;3.35;;;;;;;29.25;21.00;100474.50;4737474;29;20041;-85
2021/06/03 07:52:42;;;;;;;5.18;2.40;;;;;;;29.61;20.69;100464.78;4767686;29;20040;-83
2021/06/03 07:55:12;;;;;;;3.80;2.35;;;;;;;29.90;20.62;100468.22;4745437;30;20039;-81
2021/06/03 07:57:41;;;;;;;8.93;2.60;;;;;;;29.12;21.10;100466.50;4763783;30;20032;-83
2021/06/03 08:00:13;;;;;;;2.63;2.17;;;;;;;29.65;21.00;100479.03;4736793;30;20049;-83
2021/06/03 08:02:43;;;;;;;3.08;2.10;;;;;;;30.15;20.83;100469.66;4764236;30;20048;-83
2021/06/03 08:05:19;;;;;;;2.65;2.40;;;;;;;29.92;20.62;100479.97;4728151;30;20059;-83
2021/06/03 08:07:56;;;;;;;5.28;2.30;;;;;;;30.74;20.31;100475.34;4747526;30;20071;-85
2021/06/03 08:10:26;;;;;;;4.03;2.38;;;;;;;30.57;20.28;100469.88;4725083;30;20144;-84
2021/06/03 08:13:08;;;;;;;;;;;;;;;;;;;;;
2021/06/03 08:15:38;;;;;;;2.78;2.17;;;;;;;30.64;19.85;100484.47;4745481;30;20188;-86
2021/06/03 08:18:06;;;;;;;3.53;2.85;;;;;;;31.12;20.11;100484.66;4767070;30;20052;-84
2021/06/03 08:20:34;;;;;;;3.00;2.70;;;;;;;31.80;19.38;100485.69;4755723;30;20051;-84
2021/06/03 08:23:02;;;;;;;4.10;2.10;;;;;;;31.19;20.99;100476.84;4754908;30;20056;-86
2021/06/03 08:25:30;;;;;;;4.95;2.83;;;;;;;31.49;20.28;100473.50;4754060;30;20045;-85
2021/06/03 08:27:56;;;;;;;3.58;2.38;;;;;;;31.67;19.73;100486.19;4749782;30;20506;-84
2021/06/03 08:30:25;;;;;;;7.07;2.83;;;;;;;31.87;19.37;100475.13;4735677;30;20524;-84
2021/06/03 08:32:52;;;;;;;4.07;2.53;;;;;;;31.99;19.65;100488.03;4736555;30;20044;-83
2021/06/03 08:35:20;;;;;;;5.57;2.60;;;;;;;31.45;19.06;100483.53;4747109;30;20048;-85
2021/06/03 08:37:49;;;;;;;2.90;2.60;;;;;;;31.06;19.18;100485.72;4766200;30;20082;-83
2021/06/03 08:40:18;;;;;;;3.42;2.47;;;;;;;31.65;19.13;100480.00;4724922;30;20485;-84
2021/06/03 08:42:45;;;;;;;4.25;2.22;;;;;;;30.86;19.18;100469.59;4731588;30;20062;-83
2021/06/03 08:45:14;;;;;;;4.85;2.60;;;;;;;31.59;18.54;100476.34;4738794;30;20048;-84
2021/06/03 08:47:41;;;;;;;3.58;2.70;;;;;;;32.09;18.64;100474.09;4729077;30;20380;-82
2021/06/03 08:50:08;;;;;;;5.05;2.45;;;;;;;32.00;19.28;100472.97;4749997;30;20041;-84
2021/06/03 08:52:35;;;;;;;4.32;2.30;;;;;;;32.68;18.22;100461.69;4763547;30;20087;-83
2021/06/03 08:55:08;;;;;;;6.35;2.80;;;;;;;32.72;18.93;100463.63;4740682;30;20059;-85
2021/06/03 08:57:34;;;;;;;49.33;10.20;;;;;;;31.71;19.23;100459.38;4737131;30;20060;-84
2021/06/03 09:00:01;;;;;;;3.03;2.00;;;;;;;31.91;19.04;100459.47;4735660;30;20068;-86
2021/06/03 09:02:28;;;;;;;7.90;2.70;;;;;;;31.50;19.64;100454.75;4743304;30;20147;-86
2021/06/03 09:04:56;;;;;;;3.22;2.10;;;;;;;31.25;19.60;100447.84;4756441;30;20083;-83
2021/06/03 09:07:33;;;;;;;5.82;2.80;;;;;;;32.26;19.59;100449.53;4712693;30;20117;-83
2021/06/03 09:10:29;;;;;;;4.70;2.10;;;;;;;32.90;19.05;100454.69;4747186;30;20066;-83
2021/06/03 09:13:25;;;;;;;3.45;2.08;;;;;;;33.16;18.92;100440.69;4747385;30;20086;-85
2021/06/03 09:15:57;;;;;;;7.22;2.17;;;;;;;32.68;18.47;100448.50;4742044;30;20111;-86
2021/06/03 09:18:36;;;;;;;18.40;3.15;;;;;;;32.12;19.13;100439.97;4732456;30;20079;-84
2021/06/03 09:21:17;;;;;;;7.53;2.80;;;;;;;31.50;19.38;100440.78;4747652;30;20137;-83
2021/06/03 09:23:59;;;;;;;8.18;2.47;;;;;;;31.88;19.34;100451.63;4751801;30;20059;-83
2021/06/03 09:26:29;;;;;;;4.35;2.20;;;;;;;31.75;19.22;100429.75;4743770;30;20068;-82
2021/06/03 09:28:57;;;;;;;5.68;2.25;;;;;;;32.10;18.98;100429.03;4748974;30;20040;-84
2021/06/03 09:31:30;;;;;;;7.30;2.25;;;;;;;32.18;19.82;100436.94;4747448;30;20065;-84
2021/06/03 09:34:06;;;;;;;5.65;2.30;;;;;;;32.58;19.52;100426.09;4737651;30;20056;-83
2021/06/03 09:36:52;;;;;;;3.22;1.90;;;;;;;32.40;18.56;100422.72;4748718;30;20468;-84
2021/06/03 09:39:24;;;;;;;5.80;2.47;;;;;;;32.27;18.83;100422.38;4742695;30;20082;-83
2021/06/03 09:41:54;;;;;;;4.00;2.00;;;;;;;32.13;18.85;100422.06;4733180;30;20064;-85
2021/06/03 09:44:32;;;;;;;2.35;1.95;;;;;;;33.04;18.04;100418.56;4750433;30;20053;-83
2021/06/03 09:47:08;;;;;;;3.55;2.00;;;;;;;31.22;19.45;100423.25;4758330;30;20135;-82
2021/06/03 09:49:39;;;;;;;3.63;1.80;;;;;;;31.86;18.84;100428.69;4761433;30;20135;-85
2021/06/03 09:52:37;;;;;;;7.63;2.30;;;;;;;32.09;19.21;100426.53;4751699;30;20078;-85
2021/06/03 09:55:10;;;;;;;1.88;1.70;;;;;;;31.66;19.13;100414.59;4744608;30;20155;-82
2021/06/03 09:57:39;;;;;;;5.47;2.33;;;;;;;32.29;19.05;100409.81;4720059;30;20048;-83
2021/06/03 10:00:20;;;;;;;4.35;2.47;;;;;;;31.99;19.23;100404.13;4736115;30;20443;-82
2021/06/03 10:02:52;;;;;;;5.72;1.80;;;;;;;31.45;19.06;100410.88;4738057;30;20044;-85
2021/06/03 10:05:21;;;;;;;2.83;1.65;;;;;;;32.03;19.79;100411.72;4722157;30;20143;-81
2021/06/03 10:07:56;;;;;;;3.55;1.92;;;;;;;32.88;18.52;100414.91;4735226;30;20044;-85
2021/06/03 10:10:24;;;;;;;2.55;1.67;;;;;;;33.01;18.25;100405.13;4754439;30;20495;-83
2021/06/03 10:12:51;;;;;;;4.45;2.00;;;;;;;32.86;18.52;100397.53;4742065;30;20098;-85
2021/06/03 10:15:25;;;;;;;4.18;1.77;;;;;;;32.87;18.21;100402.03;4753042;30;20048;-83
2021/06/03 10:17:54;;;;;;;3.15;1.88;;;;;;;32.44;17.94;100399.78;4745867;30;20049;-84
2021/06/03 10:20:34;;;;;;;2.95;1.55;;;;;;;31.79;18.48;100383.34;4722376;30;20040;-83
2021/06/03 10:23:01;;;;;;;2.78;1.80;;;;;;;32.02;19.56;100397.97;4737663;30;20949;-84
2021/06/03 10:25:32;;;;;;;5.68;2.50;;;;;;;31.64;19.61;100391.66;4740870;30;20052;-83
2021/06/03 10:28:04;;;;;;;2.22;1.88;;;;;;;32.57;18.71;100382.44;4737765;30;20107;-82
2021/06/03 10:30:37;;;;;;;6.63;1.93;;;;;;;32.29;19.06;100376.22;4744998;30;20040;-85
2021/06/03 10:33:07;;;;;;;4.47;1.98;;;;;;;32.23;19.24;100384.88;4739027;30;20329;-85
2021/06/03 10:35:36;;;;;;;3.65;2.00;;;;;;;32.31;19.10;100373.97;4750006;30;20055;-86
2021/06/03 10:38:05;;;;;;;2.22;1.70;;;;;;;32.35;19.00;100372.28;4722767;30;20048;-84
2021/06/03 10:40:34;;;;;;;3.97;1.85;;;;;;;32.62;18.65;100372.06;4750063;30;20081;-85
2021/06/03 10:43:10;;;;;;;3.28;2.00;;;;;;;32.89;18.31;100368.97;4751903;30;20535;-83
2021/06/03 10:45:38;;;;;;;5.15;2.05;;;;;;;31.85;18.93;100361.78;4740796;30;20045;-83
2021/06/03 10:48:06;;;;;;;4.38;2.03;;;;;;;32.07;19.06;100368.06;4741585;30;20060;-86
2021/06/03 10:50:39;;;;;;;7.03;2.10;;;;;;;32.52;19.12;100357.25;4758724;30;20037;-83
2021/06/03 10:53:17;;;;;;;4.68;1.80;;;;;;;32.60;19.15;100356.66;4702265;30;20059;-81
2021/06/03 10:55:48;;;;;;;3.97;2.00;;;;;;;32.92;18.58;100361.13;4738607;30;20044;-83
2021/06/03 10:58:16;;;;;;;3.25;2.30;;;;;;;31.45;19.27;100364.19;4737681;30;20056;-82
2021/06/03 11:00:44;;;;;;;3.22;1.73;;;;;;;30.57;20.16;100354.59;4735763;30;20048;-81
2021/06/03 11:03:26;;;;;;;4.05;1.90;;;;;;;31.56;19.46;100361.44;4723118;30;20048;-85
2021/06/03 11:06:07;;;;;;;4.03;1.90;;;;;;;32.21;19.69;100357.16;4732333;30;20053;-82
2021/06/03 11:08:41;;;;;;;2.33;1.60;;;;;;;31.86;20.56;100349.56;4729151;30;20133;-85
2021/06/03 11:11:14;;;;;;;3.90;1.60;;;;;;;31.50;20.23;100337.38;4755141;30;20054;-84
2021/06/03 11:13:46;;;;;;;5.00;1.98;;;;;;;32.04;19.80;100334.22;4748735;30;20051;-84
2021/06/03 11:16:36;;;;;;;4.43;2.15;;;;;;;31.54;19.96;100325.34;4749793;30;20059;-85
2021/06/03 11:19:10;;;;;;;6.63;2.05;;;;;;;30.81;20.42;100339.19;4716626;30;20106;-83
2021/06/03 11:21:41;;;;;;;4.65;1.88;;;;;;;31.83;20.32;100336.91;4748949;30;20162;-84
2021/06/03 11:24:36;;;;;;;3.08;1.90;;;;;;;31.88;20.29;100331.34;4760560;30;20086;-85
2021/06/03 11:27:10;;;;;;;2.25;1.77;;;;;;;32.74;19.96;100332.59;4749462;30;20049;-85
2021/06/03 11:29:57;;;;;;;7.43;2.85;;;;;;;32.55;19.76;100345.47;4734742;30;20104;-84
2021/06/03 11:32:29;;;;;;;4.25;2.03;;;;;;;32.04;20.29;100337.00;4746051;30;20082;-83
2021/06/03 11:34:57;;;;;;;7.55;2.63;;;;;;;32.25;20.53;100330.31;4735215;30;20056;-82
2021/06/03 11:37:38;;;;;;;6.55;2.40;;;;;;;32.57;20.20;100338.47;4750284;30;20051;-82
2021/06/03 11:40:07;;;;;;;3.40;1.75;;;;;;;31.41;21.19;100326.72;4744830;30;20056;-84
2021/06/03 11:42:46;;;;;;;3.78;1.90;;;;;;;31.88;20.26;100319.34;4751228;30;20048;-82
2021/06/03 11:45:16;;;;;;;2.50;2.00;;;;;;;31.54;20.42;100319.78;4744204;30;20061;-84